Search for airport 
image banner adimage banner adimage banner ad
image banner ad

2PA4 - Boden

Located in Lakewood, United States

ICAO - 2PA4, IATA -

Data provided by Airmate  

General information

Coordinates: N41°50'48" W75°26'47"
Elevation is 2120 feet MSL.
Magnetic variation is -12° East
View others Airports in Pennsylvania

Operational data

Special qualification required
Current time UTC:
Current local time:
Weather at : KMSV - Sullivan County Intl ( 56 km )
METAR: KMSV 150706Z AUTO 31004KT 1/4SM -RA FG OVC001 15/15 A2980 RMK AO2 P0000 RVRNO
View NOTAMs / SUP AIP / TFR affecting this airport [VIEW]
Communications frequencies: [VIEW]

Runways:

RWY identifierQFULength (ft)Width (ft)SurfaceLDA (ft)
181900100GRASS
361900100GRASS

Airport contact information

Address: Lakewood United States

Satellite view of 2PA4